sensor_id;sensor_type;location;lat;lon;timestamp;pressure;altitude;pressure_sealevel;temperature
41710;BMP280;59402;48.396;-4.472;2022-09-09T00:04:09;100406.63;;;16.47
41710;BMP280;59402;48.396;-4.472;2022-09-09T00:09:32;100406.63;;;16.47
41710;BMP280;59402;48.396;-4.472;2022-09-09T00:12:29;100406.63;;;16.47
41710;BMP280;59402;48.396;-4.472;2022-09-09T00:17:39;100406.63;;;16.47
41710;BMP280;59402;48.396;-4.472;2022-09-09T00:20:31;100406.63;;;16.47
41710;BMP280;59402;48.396;-4.472;2022-09-09T00:26:03;100414.03;;;16.50
41710;BMP280;59402;48.396;-4.472;2022-09-09T00:28:32;100414.03;;;16.50
41710;BMP280;59402;48.396;-4.472;2022-09-09T00:31:16;100416.16;;;16.47
41710;BMP280;59402;48.396;-4.472;2022-09-09T00:33:44;100416.16;;;16.47
41710;BMP280;59402;48.396;-4.472;2022-09-09T00:36:14;100416.16;;;16.47
41710;BMP280;59402;48.396;-4.472;2022-09-09T00:38:48;100416.16;;;16.47
41710;BMP280;59402;48.396;-4.472;2022-09-09T00:41:20;100416.16;;;16.47
41710;BMP280;59402;48.396;-4.472;2022-09-09T00:44:32;100416.16;;;16.47
41710;BMP280;59402;48.396;-4.472;2022-09-09T00:50:17;100416.16;;;16.47
41710;BMP280;59402;48.396;-4.472;2022-09-09T00:53:24;100416.16;;;16.47
41710;BMP280;59402;48.396;-4.472;2022-09-09T00:56:14;100416.16;;;16.47
41710;BMP280;59402;48.396;-4.472;2022-09-09T00:58:43;100416.16;;;16.47
41710;BMP280;59402;48.396;-4.472;2022-09-09T01:01:12;100416.16;;;16.47
41710;BMP280;59402;48.396;-4.472;2022-09-09T01:11:38;100416.16;;;16.47
41710;BMP280;59402;48.396;-4.472;2022-09-09T01:14:27;100416.16;;;16.47
41710;BMP280;59402;48.396;-4.472;2022-09-09T01:16:59;100416.16;;;16.47
41710;BMP280;59402;48.396;-4.472;2022-09-09T01:28:20;100416.16;;;16.47
41710;BMP280;59402;48.396;-4.472;2022-09-09T01:30:48;100416.16;;;16.47
41710;BMP280;59402;48.396;-4.472;2022-09-09T01:33:17;100416.16;;;16.47
41710;BMP280;59402;48.396;-4.472;2022-09-09T01:36:00;100416.16;;;16.47
41710;BMP280;59402;48.396;-4.472;2022-09-09T01:38:32;100416.16;;;16.47
41710;BMP280;59402;48.396;-4.472;2022-09-09T01:40:58;100416.16;;;16.47
41710;BMP280;59402;48.396;-4.472;2022-09-09T01:43:32;100416.16;;;16.47
41710;BMP280;59402;48.396;-4.472;2022-09-09T01:46:00;100416.16;;;16.47
41710;BMP280;59402;48.396;-4.472;2022-09-09T01:48:27;100416.16;;;16.47
41710;BMP280;59402;48.396;-4.472;2022-09-09T01:51:02;100416.16;;;16.47
41710;BMP280;59402;48.396;-4.472;2022-09-09T01:53:28;100416.16;;;16.47
41710;BMP280;59402;48.396;-4.472;2022-09-09T01:59:21;100416.16;;;16.47
41710;BMP280;59402;48.396;-4.472;2022-09-09T02:04:38;100416.16;;;16.47
41710;BMP280;59402;48.396;-4.472;2022-09-09T02:07:41;100416.16;;;16.47
41710;BMP280;59402;48.396;-4.472;2022-09-09T02:13:14;100416.16;;;16.47
41710;BMP280;59402;48.396;-4.472;2022-09-09T02:18:23;100416.16;;;16.47
41710;BMP280;59402;48.396;-4.472;2022-09-09T02:20:52;100416.16;;;16.47
41710;BMP280;59402;48.396;-4.472;2022-09-09T02:23:18;100416.16;;;16.47
41710;BMP280;59402;48.396;-4.472;2022-09-09T02:25:48;100416.16;;;16.47
41710;BMP280;59402;48.396;-4.472;2022-09-09T02:28:22;100416.16;;;16.47
41710;BMP280;59402;48.396;-4.472;2022-09-09T02:30:51;100416.16;;;16.47
41710;BMP280;59402;48.396;-4.472;2022-09-09T02:33:25;100416.16;;;16.47
41710;BMP280;59402;48.396;-4.472;2022-09-09T02:35:52;100416.16;;;16.47
41710;BMP280;59402;48.396;-4.472;2022-09-09T02:38:27;100416.16;;;16.47
41710;BMP280;59402;48.396;-4.472;2022-09-09T02:40:59;100416.16;;;16.47
41710;BMP280;59402;48.396;-4.472;2022-09-09T02:43:31;100416.16;;;16.47
41710;BMP280;59402;48.396;-4.472;2022-09-09T02:49:00;100416.16;;;16.47
41710;BMP280;59402;48.396;-4.472;2022-09-09T02:51:52;100416.16;;;16.47
41710;BMP280;59402;48.396;-4.472;2022-09-09T02:54:38;100416.16;;;16.47
41710;BMP280;59402;48.396;-4.472;2022-09-09T02:57:15;100416.16;;;16.47
41710;BMP280;59402;48.396;-4.472;2022-09-09T02:59:44;100416.16;;;16.47
41710;BMP280;59402;48.396;-4.472;2022-09-09T03:02:10;100416.16;;;16.47
41710;BMP280;59402;48.396;-4.472;2022-09-09T03:04:38;100416.16;;;16.47
41710;BMP280;59402;48.396;-4.472;2022-09-09T03:07:04;100416.16;;;16.47
41710;BMP280;59402;48.396;-4.472;2022-09-09T03:09:30;100416.16;;;16.47
41710;BMP280;59402;48.396;-4.472;2022-09-09T03:11:56;100416.16;;;16.47
41710;BMP280;59402;48.396;-4.472;2022-09-09T03:14:22;100416.16;;;16.47
41710;BMP280;59402;48.396;-4.472;2022-09-09T03:16:51;100416.16;;;16.47
41710;BMP280;59402;48.396;-4.472;2022-09-09T03:19:18;100416.16;;;16.47
41710;BMP280;59402;48.396;-4.472;2022-09-09T03:21:45;100416.16;;;16.47
41710;BMP280;59402;48.396;-4.472;2022-09-09T03:24:11;100416.16;;;16.47
41710;BMP280;59402;48.396;-4.472;2022-09-09T03:26:36;100416.16;;;16.47
41710;BMP280;59402;48.396;-4.472;2022-09-09T03:29:04;100416.16;;;16.47
41710;BMP280;59402;48.396;-4.472;2022-09-09T03:31:33;100416.16;;;16.47
41710;BMP280;59402;48.396;-4.472;2022-09-09T03:33:58;100416.16;;;16.47
41710;BMP280;59402;48.396;-4.472;2022-09-09T03:36:26;100416.16;;;16.47
41710;BMP280;59402;48.396;-4.472;2022-09-09T03:38:52;100416.16;;;16.47
41710;BMP280;59402;48.396;-4.472;2022-09-09T03:41:21;100416.16;;;16.47
41710;BMP280;59402;48.396;-4.472;2022-09-09T03:43:53;100416.16;;;16.47
41710;BMP280;59402;48.396;-4.472;2022-09-09T03:46:21;100585.53;;;16.57
41710;BMP280;59402;48.396;-4.472;2022-09-09T03:48:49;100568.44;;;16.56
41710;BMP280;59402;48.396;-4.472;2022-09-09T03:51:16;100557.47;;;16.54
41710;BMP280;59402;48.396;-4.472;2022-09-09T03:53:42;100551.00;;;16.50
41710;BMP280;59402;48.396;-4.472;2022-09-09T03:56:08;100556.34;;;16.49
41710;BMP280;59402;48.396;-4.472;2022-09-09T03:58:35;100559.59;;;16.43
41710;BMP280;59402;48.396;-4.472;2022-09-09T04:01:08;100547.66;;;16.42
41710;BMP280;59402;48.396;-4.472;2022-09-09T04:03:34;100544.25;;;16.41
41710;BMP280;59402;48.396;-4.472;2022-09-09T04:06:03;100540.69;;;16.42
41710;BMP280;59402;48.396;-4.472;2022-09-09T04:08:31;100544.75;;;16.45
41710;BMP280;59402;48.396;-4.472;2022-09-09T04:10:58;100539.72;;;16.43
41710;BMP280;59402;48.396;-4.472;2022-09-09T04:13:26;100544.09;;;16.43
41710;BMP280;59402;48.396;-4.472;2022-09-09T04:15:56;100546.97;;;16.48
41710;BMP280;59402;48.396;-4.472;2022-09-09T04:18:23;100551.34;;;16.47
41710;BMP280;59402;48.396;-4.472;2022-09-09T04:20:51;100544.88;;;16.51
41710;BMP280;59402;48.396;-4.472;2022-09-09T04:23:19;100544.09;;;16.43
41710;BMP280;59402;48.396;-4.472;2022-09-09T04:25:47;100541.81;;;16.48
41710;BMP280;59402;48.396;-4.472;2022-09-09T04:28:17;100548.94;;;16.46
41710;BMP280;59402;48.396;-4.472;2022-09-09T04:30:44;100543.75;;;16.46
41710;BMP280;59402;48.396;-4.472;2022-09-09T04:33:11;100552.66;;;16.43
41710;BMP280;59402;48.396;-4.472;2022-09-09T04:35:37;100558.97;;;16.41
41710;BMP280;59402;48.396;-4.472;2022-09-09T04:38:05;100555.72;;;16.47
41710;BMP280;59402;48.396;-4.472;2022-09-09T04:40:31;100548.94;;;16.46
41710;BMP280;59402;48.396;-4.472;2022-09-09T04:43:00;100552.00;;;16.49
41710;BMP280;59402;48.396;-4.472;2022-09-09T04:45:26;100549.72;;;16.54
41710;BMP280;59402;48.396;-4.472;2022-09-09T04:47:53;100555.03;;;16.53
41710;BMP280;59402;48.396;-4.472;2022-09-09T04:50:19;100551.34;;;16.47
41710;BMP280;59402;48.396;-4.472;2022-09-09T04:52:46;100552.63;;;16.51
41710;BMP280;59402;48.396;-4.472;2022-09-09T04:55:12;100556.97;;;16.51
41710;BMP280;59402;48.396;-4.472;2022-09-09T04:57:39;100546.97;;;16.48
41710;BMP280;59402;48.396;-4.472;2022-09-09T05:00:06;100551.16;;;16.49
41710;BMP280;59402;48.396;-4.472;2022-09-09T05:02:39;100554.59;;;16.49
41710;BMP280;59402;48.396;-4.472;2022-09-09T05:05:06;100547.97;;;16.47
41710;BMP280;59402;48.396;-4.472;2022-09-09T05:07:32;100548.59;;;16.49
41710;BMP280;59402;48.396;-4.472;2022-09-09T05:09:57;100560.06;;;16.46
41710;BMP280;59402;48.396;-4.472;2022-09-09T05:12:24;100552.94;;;16.48
41710;BMP280;59402;48.396;-4.472;2022-09-09T05:14:53;100553.75;;;16.49
41710;BMP280;59402;48.396;-4.472;2022-09-09T05:17:20;100548.44;;;16.50
41710;BMP280;59402;48.396;-4.472;2022-09-09T05:19:46;100546.31;;;16.54
41710;BMP280;59402;48.396;-4.472;2022-09-09T05:22:13;100551.34;;;16.55
41710;BMP280;59402;48.396;-4.472;2022-09-09T05:24:43;100551.63;;;16.60
41710;BMP280;59402;48.396;-4.472;2022-09-09T05:27:09;100550.47;;;16.63
41710;BMP280;59402;48.396;-4.472;2022-09-09T05:29:38;100559.69;;;16.65
41710;BMP280;59402;48.396;-4.472;2022-09-09T05:32:05;100558.38;;;16.69
41710;BMP280;59402;48.396;-4.472;2022-09-09T05:34:33;100560.81;;;16.70
41710;BMP280;59402;48.396;-4.472;2022-09-09T05:36:59;100561.56;;;16.79
41710;BMP280;59402;48.396;-4.472;2022-09-09T05:39:25;100567.38;;;16.81
41710;BMP280;59402;48.396;-4.472;2022-09-09T05:41:51;100568.66;;;16.85
41710;BMP280;59402;48.396;-4.472;2022-09-09T05:44:16;100573.00;;;16.84
41710;BMP280;59402;48.396;-4.472;2022-09-09T05:46:42;100571.06;;;16.86
41710;BMP280;59402;48.396;-4.472;2022-09-09T05:49:08;100577.06;;;16.87
41710;BMP280;59402;48.396;-4.472;2022-09-09T05:51:34;100568.44;;;16.94
41710;BMP280;59402;48.396;-4.472;2022-09-09T05:54:05;100568.44;;;16.94
41710;BMP280;59402;48.396;-4.472;2022-09-09T05:56:35;100568.44;;;16.94
41710;BMP280;59402;48.396;-4.472;2022-09-09T05:59:01;100565.97;;;17.01
41710;BMP280;59402;48.396;-4.472;2022-09-09T06:01:32;100576.81;;;17.04
41710;BMP280;59402;48.396;-4.472;2022-09-09T06:04:00;100576.81;;;17.04
41710;BMP280;59402;48.396;-4.472;2022-09-09T06:06:36;100576.81;;;17.04
41710;BMP280;59402;48.396;-4.472;2022-09-09T06:09:05;100585.72;;;17.02
41710;BMP280;59402;48.396;-4.472;2022-09-09T06:11:41;100585.72;;;17.02
41710;BMP280;59402;48.396;-4.472;2022-09-09T06:14:08;100593.19;;;16.89
41710;BMP280;59402;48.396;-4.472;2022-09-09T06:16:34;100593.19;;;16.89
41710;BMP280;59402;48.396;-4.472;2022-09-09T06:19:01;100593.19;;;16.89
41710;BMP280;59402;48.396;-4.472;2022-09-09T06:21:31;100593.19;;;16.89
41710;BMP280;59402;48.396;-4.472;2022-09-09T06:24:03;100593.19;;;16.89
41710;BMP280;59402;48.396;-4.472;2022-09-09T06:26:32;100593.19;;;16.89
41710;BMP280;59402;48.396;-4.472;2022-09-09T06:29:00;100593.19;;;16.89
41710;BMP280;59402;48.396;-4.472;2022-09-09T06:31:27;100593.19;;;16.89
41710;BMP280;59402;48.396;-4.472;2022-09-09T06:33:58;100593.19;;;16.89
41710;BMP280;59402;48.396;-4.472;2022-09-09T06:36:26;100615.72;;;16.72
41710;BMP280;59402;48.396;-4.472;2022-09-09T06:38:52;100615.25;;;16.69
41710;BMP280;59402;48.396;-4.472;2022-09-09T06:41:19;100619.75;;;16.83
41710;BMP280;59402;48.396;-4.472;2022-09-09T06:43:48;100619.75;;;16.83
41710;BMP280;59402;48.396;-4.472;2022-09-09T06:46:23;100619.75;;;16.83
41710;BMP280;59402;48.396;-4.472;2022-09-09T06:48:54;100619.75;;;16.83
41710;BMP280;59402;48.396;-4.472;2022-09-09T06:51:27;100619.75;;;16.83
41710;BMP280;59402;48.396;-4.472;2022-09-09T06:53:54;100619.75;;;16.83
41710;BMP280;59402;48.396;-4.472;2022-09-09T06:56:27;100649.94;;;17.28
41710;BMP280;59402;48.396;-4.472;2022-09-09T06:58:56;100638.78;;;17.36
41710;BMP280;59402;48.396;-4.472;2022-09-09T07:01:27;100642.75;;;17.46
41710;BMP280;59402;48.396;-4.472;2022-09-09T07:03:56;100652.41;;;17.52
41710;BMP280;59402;48.396;-4.472;2022-09-09T07:06:32;100649.13;;;17.58
41710;BMP280;59402;48.396;-4.472;2022-09-09T07:09:02;100653.16;;;17.60
41710;BMP280;59402;48.396;-4.472;2022-09-09T07:11:37;100653.16;;;17.60
41710;BMP280;59402;48.396;-4.472;2022-09-09T07:14:02;100653.16;;;17.60
41710;BMP280;59402;48.396;-4.472;2022-09-09T07:16:28;100653.16;;;17.60
41710;BMP280;59402;48.396;-4.472;2022-09-09T07:18:56;100653.16;;;17.60
41710;BMP280;59402;48.396;-4.472;2022-09-09T07:21:28;100653.16;;;17.60
41710;BMP280;59402;48.396;-4.472;2022-09-09T07:23:54;100653.16;;;17.60
41710;BMP280;59402;48.396;-4.472;2022-09-09T07:26:24;100653.16;;;17.60
41710;BMP280;59402;48.396;-4.472;2022-09-09T07:28:50;100653.16;;;17.60
41710;BMP280;59402;48.396;-4.472;2022-09-09T07:31:42;100653.16;;;17.60
41710;BMP280;59402;48.396;-4.472;2022-09-09T07:34:12;100673.03;;;17.68
41710;BMP280;59402;48.396;-4.472;2022-09-09T07:36:39;100673.03;;;17.68
41710;BMP280;59402;48.396;-4.472;2022-09-09T07:39:09;100691.53;;;17.87
41710;BMP280;59402;48.396;-4.472;2022-09-09T07:41:41;100691.53;;;17.87
41710;BMP280;59402;48.396;-4.472;2022-09-09T07:44:15;100691.53;;;17.87
41710;BMP280;59402;48.396;-4.472;2022-09-09T07:46:44;100691.53;;;17.87
41710;BMP280;59402;48.396;-4.472;2022-09-09T07:49:13;100691.53;;;17.87
41710;BMP280;59402;48.396;-4.472;2022-09-09T07:51:41;100691.53;;;17.87
41710;BMP280;59402;48.396;-4.472;2022-09-09T07:54:10;100691.53;;;17.87
41710;BMP280;59402;48.396;-4.472;2022-09-09T07:56:39;100691.53;;;17.87
41710;BMP280;59402;48.396;-4.472;2022-09-09T07:59:06;100691.53;;;17.87
41710;BMP280;59402;48.396;-4.472;2022-09-09T08:01:36;100711.28;;;18.69
41710;BMP280;59402;48.396;-4.472;2022-09-09T08:04:07;100717.00;;;18.64
41710;BMP280;59402;48.396;-4.472;2022-09-09T08:06:38;100720.16;;;18.74
41710;BMP280;59402;48.396;-4.472;2022-09-09T08:09:07;100720.84;;;18.68
41710;BMP280;59402;48.396;-4.472;2022-09-09T08:11:32;100739.94;;;18.89
41710;BMP280;59402;48.396;-4.472;2022-09-09T08:14:00;100737.88;;;18.85
41710;BMP280;59402;48.396;-4.472;2022-09-09T08:16:28;100750.31;;;18.89
41710;BMP280;59402;48.396;-4.472;2022-09-09T08:18:55;100751.88;;;18.62
41710;BMP280;59402;48.396;-4.472;2022-09-09T08:21:23;100742.88;;;18.72
41710;BMP280;59402;48.396;-4.472;2022-09-09T08:23:51;100757.53;;;18.79
41710;BMP280;59402;48.396;-4.472;2022-09-09T08:26:19;100755.75;;;18.80
41710;BMP280;59402;48.396;-4.472;2022-09-09T08:28:50;100761.16;;;18.93
41710;BMP280;59402;48.396;-4.472;2022-09-09T08:31:26;100750.38;;;18.81
41710;BMP280;59402;48.396;-4.472;2022-09-09T08:33:54;100749.44;;;18.60
41710;BMP280;59402;48.396;-4.472;2022-09-09T08:36:22;100750.44;;;18.59
41710;BMP280;59402;48.396;-4.472;2022-09-09T08:38:49;100755.22;;;18.48
41710;BMP280;59402;48.396;-4.472;2022-09-09T08:44:04;100756.56;;;18.80
41710;BMP280;59402;48.396;-4.472;2022-09-09T08:46:35;100768.22;;;18.99
41710;BMP280;59402;48.396;-4.472;2022-09-09T08:49:18;100773.81;;;19.24
41710;BMP280;59402;48.396;-4.472;2022-09-09T08:51:46;100777.94;;;19.48
41710;BMP280;59402;48.396;-4.472;2022-09-09T08:54:13;100785.41;;;19.71
41710;BMP280;59402;48.396;-4.472;2022-09-09T08:56:39;100793.22;;;19.57
41710;BMP280;59402;48.396;-4.472;2022-09-09T08:59:05;100809.88;;;19.62
41710;BMP280;59402;48.396;-4.472;2022-09-09T09:01:59;100810.16;;;19.39
41710;BMP280;59402;48.396;-4.472;2022-09-09T09:10:02;100811.94;;;19.38
41710;BMP280;59402;48.396;-4.472;2022-09-09T09:12:38;100820.19;;;19.42
41710;BMP280;59402;48.396;-4.472;2022-09-09T09:15:18;100815.88;;;19.34
41710;BMP280;59402;48.396;-4.472;2022-09-09T09:17:45;100827.69;;;19.51
41710;BMP280;59402;48.396;-4.472;2022-09-09T09:20:15;100836.81;;;19.33
41710;BMP280;59402;48.396;-4.472;2022-09-09T09:22:47;100846.00;;;19.07
41710;BMP280;59402;48.396;-4.472;2022-09-09T09:25:22;100821.16;;;19.12
41710;BMP280;59402;48.396;-4.472;2022-09-09T09:30:24;100843.50;;;18.77
41710;BMP280;59402;48.396;-4.472;2022-09-09T09:33:06;100832.88;;;18.86
41710;BMP280;59402;48.396;-4.472;2022-09-09T09:35:34;100838.75;;;18.80
41710;BMP280;59402;48.396;-4.472;2022-09-09T09:38:00;100840.47;;;18.87
41710;BMP280;59402;48.396;-4.472;2022-09-09T09:40:27;100851.19;;;19.07
41710;BMP280;59402;48.396;-4.472;2022-09-09T09:42:58;100841.84;;;19.34
41710;BMP280;59402;48.396;-4.472;2022-09-09T09:45:35;100851.34;;;19.42
41710;BMP280;59402;48.396;-4.472;2022-09-09T09:48:09;100855.53;;;19.43
41710;BMP280;59402;48.396;-4.472;2022-09-09T09:51:29;100857.00;;;19.31
41710;BMP280;59402;48.396;-4.472;2022-09-09T09:53:37;100854.84;;;19.48
41710;BMP280;59402;48.396;-4.472;2022-09-09T09:56:05;100862.97;;;19.74
41710;BMP280;59402;48.396;-4.472;2022-09-09T09:58:38;100872.41;;;19.89
41710;BMP280;59402;48.396;-4.472;2022-09-09T10:01:27;100873.09;;;20.12
41710;BMP280;59402;48.396;-4.472;2022-09-09T10:04:00;100880.22;;;20.39
41710;BMP280;59402;48.396;-4.472;2022-09-09T10:06:32;100889.88;;;19.81
41710;BMP280;59402;48.396;-4.472;2022-09-09T10:08:59;100892.81;;;19.35
41710;BMP280;59402;48.396;-4.472;2022-09-09T10:14:18;100891.56;;;19.60
41710;BMP280;59402;48.396;-4.472;2022-09-09T10:19:35;100896.41;;;19.63
41710;BMP280;59402;48.396;-4.472;2022-09-09T10:22:25;100916.72;;;19.59
41710;BMP280;59402;48.396;-4.472;2022-09-09T10:27:36;100933.88;;;19.83
41710;BMP280;59402;48.396;-4.472;2022-09-09T10:30:24;100922.22;;;20.07
41710;BMP280;59402;48.396;-4.472;2022-09-09T10:33:13;100922.50;;;20.61
41710;BMP280;59402;48.396;-4.472;2022-09-09T10:38:40;100933.94;;;20.32
41710;BMP280;59402;48.396;-4.472;2022-09-09T10:41:10;100938.38;;;20.52
41710;BMP280;59402;48.396;-4.472;2022-09-09T10:43:56;100940.53;;;20.84
41710;BMP280;59402;48.396;-4.472;2022-09-09T10:46:50;100934.75;;;20.04
41710;BMP280;59402;48.396;-4.472;2022-09-09T10:57:29;100867.78;;;18.31
41710;BMP280;59402;48.396;-4.472;2022-09-09T11:00:00;100882.44;;;18.46
41710;BMP280;59402;48.396;-4.472;2022-09-09T11:02:30;100882.75;;;18.51
41710;BMP280;59402;48.396;-4.472;2022-09-09T11:07:34;100890.75;;;18.64
41710;BMP280;59402;48.396;-4.472;2022-09-09T11:10:06;100893.34;;;19.74
41710;BMP280;59402;48.396;-4.472;2022-09-09T11:12:35;100915.72;;;19.46
41710;BMP280;59402;48.396;-4.472;2022-09-09T11:15:14;100910.78;;;19.22
41710;BMP280;59402;48.396;-4.472;2022-09-09T11:17:53;100921.63;;;18.74
41710;BMP280;59402;48.396;-4.472;2022-09-09T11:20:22;100929.50;;;18.66
41710;BMP280;59402;48.396;-4.472;2022-09-09T11:25:40;100938.91;;;18.89
41710;BMP280;59402;48.396;-4.472;2022-09-09T11:37:17;100935.69;;;19.96
41710;BMP280;59402;48.396;-4.472;2022-09-09T11:42:38;100958.78;;;20.20
41710;BMP280;59402;48.396;-4.472;2022-09-09T11:45:15;100974.69;;;20.74
41710;BMP280;59402;48.396;-4.472;2022-09-09T11:47:52;100994.22;;;21.05
41710;BMP280;59402;48.396;-4.472;2022-09-09T11:52:45;101012.28;;;21.48
41710;BMP280;59402;48.396;-4.472;2022-09-09T11:57:46;100998.00;;;22.26
41710;BMP280;59402;48.396;-4.472;2022-09-09T12:00:39;101002.25;;;21.72
41710;BMP280;59402;48.396;-4.472;2022-09-09T12:03:31;101010.91;;;21.52
41710;BMP280;59402;48.396;-4.472;2022-09-09T12:06:09;101004.47;;;21.75
41710;BMP280;59402;48.396;-4.472;2022-09-09T12:08:37;101007.78;;;21.63
41710;BMP280;59402;48.396;-4.472;2022-09-09T12:11:06;101012.75;;;22.12
41710;BMP280;59402;48.396;-4.472;2022-09-09T12:13:32;101022.97;;;22.41
41710;BMP280;59402;48.396;-4.472;2022-09-09T12:15:59;101057.47;;;22.43
41710;BMP280;59402;48.396;-4.472;2022-09-09T12:18:25;100992.78;;;22.26
41710;BMP280;59402;48.396;-4.472;2022-09-09T12:21:05;100733.00;;;22.89
41710;BMP280;59402;48.396;-4.472;2022-09-09T12:26:33;100463.44;;;22.13
41710;BMP280;59402;48.396;-4.472;2022-09-09T12:34:41;100430.53;;;22.62
41710;BMP280;59402;48.396;-4.472;2022-09-09T12:37:40;100441.22;;;21.65
41710;BMP280;59402;48.396;-4.472;2022-09-09T12:40:22;100399.94;;;21.69
41710;BMP280;59402;48.396;-4.472;2022-09-09T12:42:48;100388.00;;;22.05
41710;BMP280;59402;48.396;-4.472;2022-09-09T12:45:24;100389.03;;;21.97
41710;BMP280;59402;48.396;-4.472;2022-09-09T12:47:54;100387.66;;;22.45
41710;BMP280;59402;48.396;-4.472;2022-09-09T12:50:22;100390.88;;;22.77
41710;BMP280;59402;48.396;-4.472;2022-09-09T12:52:52;100394.72;;;22.38
41710;BMP280;59402;48.396;-4.472;2022-09-09T12:55:21;100379.72;;;22.64
41710;BMP280;59402;48.396;-4.472;2022-09-09T12:57:50;100391.22;;;22.50
41710;BMP280;59402;48.396;-4.472;2022-09-09T13:00:22;100397.66;;;23.15
41710;BMP280;59402;48.396;-4.472;2022-09-09T13:02:56;100347.41;;;22.96
41710;BMP280;59402;48.396;-4.472;2022-09-09T13:05:27;100280.47;;;23.43
41710;BMP280;59402;48.396;-4.472;2022-09-09T13:08:05;100293.47;;;24.83
41710;BMP280;59402;48.396;-4.472;2022-09-09T13:10:32;100298.09;;;24.01
41710;BMP280;59402;48.396;-4.472;2022-09-09T13:12:58;100175.78;;;24.03
41710;BMP280;59402;48.396;-4.472;2022-09-09T13:15:28;100173.09;;;24.61
41710;BMP280;59402;48.396;-4.472;2022-09-09T13:17:57;100210.66;;;23.97
41710;BMP280;59402;48.396;-4.472;2022-09-09T13:20:24;100214.16;;;24.72
41710;BMP280;59402;48.396;-4.472;2022-09-09T13:22:51;100203.31;;;23.76
41710;BMP280;59402;48.396;-4.472;2022-09-09T13:25:24;100203.50;;;23.92
41710;BMP280;59402;48.396;-4.472;2022-09-09T13:35:51;100258.22;;;25.09
41710;BMP280;59402;48.396;-4.472;2022-09-09T13:38:18;100228.56;;;24.11
41710;BMP280;59402;48.396;-4.472;2022-09-09T13:41:04;100223.63;;;23.92
41710;BMP280;59402;48.396;-4.472;2022-09-09T13:43:50;100209.13;;;23.78
41710;BMP280;59402;48.396;-4.472;2022-09-09T13:46:27;100144.91;;;23.06
41710;BMP280;59402;48.396;-4.472;2022-09-09T13:49:39;100135.13;;;24.06
41710;BMP280;59402;48.396;-4.472;2022-09-09T13:51:42;100152.09;;;23.86
41710;BMP280;59402;48.396;-4.472;2022-09-09T13:54:09;100134.97;;;23.61
41710;BMP280;59402;48.396;-4.472;2022-09-09T13:56:36;100171.56;;;23.43
41710;BMP280;59402;48.396;-4.472;2022-09-09T13:59:03;100124.59;;;23.08
41710;BMP280;59402;48.396;-4.472;2022-09-09T14:01:29;100151.69;;;24.01
41710;BMP280;59402;48.396;-4.472;2022-09-09T14:03:55;100161.63;;;24.21
41710;BMP280;59402;48.396;-4.472;2022-09-09T14:06:21;100139.53;;;24.06
41710;BMP280;59402;48.396;-4.472;2022-09-09T14:08:48;100118.50;;;23.14
41710;BMP280;59402;48.396;-4.472;2022-09-09T14:11:15;100106.69;;;23.40
41710;BMP280;59402;48.396;-4.472;2022-09-09T14:13:41;100190.38;;;24.62
41710;BMP280;59402;48.396;-4.472;2022-09-09T14:16:07;100187.06;;;24.55
41710;BMP280;59402;48.396;-4.472;2022-09-09T14:18:32;100149.00;;;23.78
41710;BMP280;59402;48.396;-4.472;2022-09-09T14:20:59;100069.81;;;22.84
41710;BMP280;59402;48.396;-4.472;2022-09-09T14:23:24;100019.94;;;22.21
41710;BMP280;59402;48.396;-4.472;2022-09-09T14:25:51;100013.75;;;21.91
41710;BMP280;59402;48.396;-4.472;2022-09-09T14:28:17;100038.84;;;21.37
41710;BMP280;59402;48.396;-4.472;2022-09-09T14:30:43;100143.59;;;21.26
41710;BMP280;59402;48.396;-4.472;2022-09-09T14:33:14;100233.41;;;22.65
41710;BMP280;59402;48.396;-4.472;2022-09-09T14:35:40;100171.25;;;22.01
41710;BMP280;59402;48.396;-4.472;2022-09-09T14:38:06;100191.59;;;22.48
41710;BMP280;59402;48.396;-4.472;2022-09-09T14:40:34;100241.09;;;22.30
41710;BMP280;59402;48.396;-4.472;2022-09-09T14:43:00;100341.34;;;22.40
41710;BMP280;59402;48.396;-4.472;2022-09-09T14:45:25;100223.00;;;23.07
41710;BMP280;59402;48.396;-4.472;2022-09-09T14:47:52;100240.91;;;22.56
41710;BMP280;59402;48.396;-4.472;2022-09-09T14:50:19;100201.34;;;22.59
41710;BMP280;59402;48.396;-4.472;2022-09-09T14:52:45;100286.81;;;22.32
41710;BMP280;59402;48.396;-4.472;2022-09-09T14:55:10;100244.50;;;22.85
41710;BMP280;59402;48.396;-4.472;2022-09-09T14:57:36;100064.09;;;23.58
41710;BMP280;59402;48.396;-4.472;2022-09-09T15:00:03;100073.31;;;24.23
41710;BMP280;59402;48.396;-4.472;2022-09-09T15:02:30;100094.97;;;24.69
41710;BMP280;59402;48.396;-4.472;2022-09-09T15:04:56;100092.94;;;23.33
41710;BMP280;59402;48.396;-4.472;2022-09-09T15:07:25;100061.34;;;23.06
41710;BMP280;59402;48.396;-4.472;2022-09-09T15:09:52;100079.06;;;23.33
41710;BMP280;59402;48.396;-4.472;2022-09-09T15:12:18;100039.09;;;22.68
41710;BMP280;59402;48.396;-4.472;2022-09-09T15:14:45;100011.88;;;22.04
41710;BMP280;59402;48.396;-4.472;2022-09-09T15:17:11;100010.91;;;21.75
41710;BMP280;59402;48.396;-4.472;2022-09-09T15:19:37;100187.25;;;21.24
41710;BMP280;59402;48.396;-4.472;2022-09-09T15:22:03;100248.72;;;21.38
41710;BMP280;59402;48.396;-4.472;2022-09-09T15:24:31;100227.75;;;21.77
41710;BMP280;59402;48.396;-4.472;2022-09-09T15:26:57;100245.69;;;21.54
41710;BMP280;59402;48.396;-4.472;2022-09-09T15:29:23;100293.78;;;21.39
41710;BMP280;59402;48.396;-4.472;2022-09-09T15:31:48;100363.28;;;21.25
41710;BMP280;59402;48.396;-4.472;2022-09-09T15:34:14;100453.16;;;20.96
41710;BMP280;59402;48.396;-4.472;2022-09-09T15:36:44;100744.28;;;20.51
41710;BMP280;59402;48.396;-4.472;2022-09-09T15:39:13;100916.50;;;21.02
41710;BMP280;59402;48.396;-4.472;2022-09-09T15:41:41;101011.09;;;20.74
41710;BMP280;59402;48.396;-4.472;2022-09-09T15:44:08;100987.59;;;20.82
41710;BMP280;59402;48.396;-4.472;2022-09-09T15:46:34;100996.16;;;20.62
41710;BMP280;59402;48.396;-4.472;2022-09-09T15:49:20;101060.31;;;20.90
41710;BMP280;59402;48.396;-4.472;2022-09-09T15:51:55;101061.09;;;20.70
41710;BMP280;59402;48.396;-4.472;2022-09-09T15:54:22;101104.03;;;20.52
41710;BMP280;59402;48.396;-4.472;2022-09-09T15:56:56;101159.72;;;20.06
41710;BMP280;59402;48.396;-4.472;2022-09-09T15:59:27;101182.75;;;20.17